Taylors Falls, Minnesota
Current Conditions -  °F | °C
As of 11:55 AM on Wednesday 28 Jan 2015 (Local Time) from KOEO Reporting Station
Haze Haze  
Wind Chill: 18°   Ceiling: 1000
Heat Index: 29°   Visibility: 5mi
Dew Point: 25°   Wind: 14mph
Humidity: 86%   Direction: 140°SE
Pressure: 29.98"   Gusts: 18mph
Location:  45.4°N, 92.65°W
Report Text: KOEO 281755Z AUTO 14012G16KT 5SM BR OVC010 M02/M04 A2998 RMK AO2 T10181039 11018 21030
Loading
Personal Weather Stations






























Interactive Weather Map New forecast layout! Learn more

10-Day Weather Forecast

Advertisements
Track Severe Weather on mobile